sensor_id;sensor_type;location;lat;lon;timestamp;pressure;altitude;pressure_sealevel;temperature;humidity
61757;BME280;57225;61.460;24.060;2022-11-20T00:02:42;100808.38;;;-3.48;94.27
61757;BME280;57225;61.460;24.060;2022-11-20T00:05:27;100807.84;;;-3.50;95.61
61757;BME280;57225;61.460;24.060;2022-11-20T00:08:11;100809.19;;;-3.48;94.87
61757;BME280;57225;61.460;24.060;2022-11-20T00:10:56;100815.44;;;-3.47;94.63
61757;BME280;57225;61.460;24.060;2022-11-20T00:13:40;100800.69;;;-3.46;95.29
61757;BME280;57225;61.460;24.060;2022-11-20T00:16:26;100797.53;;;-3.53;94.43
61757;BME280;57225;61.460;24.060;2022-11-20T00:19:11;100790.31;;;-3.63;94.22
61757;BME280;57225;61.460;24.060;2022-11-20T00:21:55;100786.88;;;-3.50;94.53
61757;BME280;57225;61.460;24.060;2022-11-20T00:24:40;100788.19;;;-3.47;94.77
61757;BME280;57225;61.460;24.060;2022-11-20T00:27:25;100781.94;;;-3.48;94.56
61757;BME280;57225;61.460;24.060;2022-11-20T00:30:09;100780.09;;;-3.52;93.74
61757;BME280;57225;61.460;24.060;2022-11-20T00:32:56;100777.72;;;-3.59;94.10
61757;BME280;57225;61.460;24.060;2022-11-20T00:35:41;100781.78;;;-3.56;94.11
61757;BME280;57225;61.460;24.060;2022-11-20T00:38:25;100779.88;;;-3.56;94.09
61757;BME280;57225;61.460;24.060;2022-11-20T00:41:12;100777.44;;;-3.57;94.53
61757;BME280;57225;61.460;24.060;2022-11-20T00:43:57;100769.84;;;-3.60;95.67
61757;BME280;57225;61.460;24.060;2022-11-20T00:46:41;100769.53;;;-3.59;95.03
61757;BME280;57225;61.460;24.060;2022-11-20T00:49:25;100777.63;;;-3.54;94.86
61757;BME280;57225;61.460;24.060;2022-11-20T00:52:10;100775.22;;;-3.55;93.60
61757;BME280;57225;61.460;24.060;2022-11-20T00:54:54;100771.97;;;-3.57;94.52
61757;BME280;57225;61.460;24.060;2022-11-20T00:57:39;100770.16;;;-3.62;93.84
61757;BME280;57225;61.460;24.060;2022-11-20T01:00:23;100768.72;;;-3.59;94.39
61757;BME280;57225;61.460;24.060;2022-11-20T01:03:08;100760.09;;;-3.67;94.84
61757;BME280;57225;61.460;24.060;2022-11-20T01:05:52;100766.53;;;-3.57;94.31
61757;BME280;57225;61.460;24.060;2022-11-20T01:08:37;100764.97;;;-3.63;93.18
61757;BME280;57225;61.460;24.060;2022-11-20T01:11:24;100756.53;;;-3.62;93.76
61757;BME280;57225;61.460;24.060;2022-11-20T01:14:14;100748.72;;;-3.69;94.04
61757;BME280;57225;61.460;24.060;2022-11-20T01:16:59;100752.75;;;-3.66;94.53
61757;BME280;57225;61.460;24.060;2022-11-20T01:19:43;100759.00;;;-3.66;93.87
61757;BME280;57225;61.460;24.060;2022-11-20T01:22:28;100747.66;;;-3.73;93.64
61757;BME280;57225;61.460;24.060;2022-11-20T01:25:12;100750.34;;;-3.68;92.88
61757;BME280;57225;61.460;24.060;2022-11-20T01:27:56;100746.56;;;-3.72;93.77
61757;BME280;57225;61.460;24.060;2022-11-20T01:30:41;100746.19;;;-3.65;93.88
61757;BME280;57225;61.460;24.060;2022-11-20T01:33:25;100741.56;;;-3.65;91.98
61757;BME280;57225;61.460;24.060;2022-11-20T01:36:11;100740.53;;;-3.69;91.57
61757;BME280;57225;61.460;24.060;2022-11-20T01:38:58;100745.25;;;-3.74;91.58
61757;BME280;57225;61.460;24.060;2022-11-20T01:41:43;100744.44;;;-3.75;92.10
61757;BME280;57225;61.460;24.060;2022-11-20T01:44:55;100735.16;;;-3.74;92.35
61757;BME280;57225;61.460;24.060;2022-11-20T01:47:44;100738.38;;;-3.72;92.58
61757;BME280;57225;61.460;24.060;2022-11-20T01:50:29;100733.75;;;-3.71;92.07
61757;BME280;57225;61.460;24.060;2022-11-20T01:53:17;100726.22;;;-3.79;92.67
61757;BME280;57225;61.460;24.060;2022-11-20T01:56:06;100726.47;;;-3.76;93.08
61757;BME280;57225;61.460;24.060;2022-11-20T01:58:56;100725.38;;;-3.75;93.61
61757;BME280;57225;61.460;24.060;2022-11-20T02:01:42;100710.94;;;-3.75;92.62
61757;BME280;57225;61.460;24.060;2022-11-20T02:04:26;100719.47;;;-3.82;92.70
61757;BME280;57225;61.460;24.060;2022-11-20T02:07:11;100715.34;;;-3.79;93.03
61757;BME280;57225;61.460;24.060;2022-11-20T02:09:56;100702.03;;;-3.81;92.68
61757;BME280;57225;61.460;24.060;2022-11-20T02:12:40;100706.97;;;-3.83;93.27
61757;BME280;57225;61.460;24.060;2022-11-20T02:15:44;100700.50;;;-3.87;93.06
61757;BME280;57225;61.460;24.060;2022-11-20T02:18:29;100696.06;;;-3.83;94.18
61757;BME280;57225;61.460;24.060;2022-11-20T02:21:19;100694.44;;;-3.84;93.81
61757;BME280;57225;61.460;24.060;2022-11-20T02:24:11;100672.75;;;-3.89;93.72
61757;BME280;57225;61.460;24.060;2022-11-20T02:27:00;100671.13;;;-3.90;93.60
61757;BME280;57225;61.460;24.060;2022-11-20T02:32:34;100666.13;;;-3.83;94.00
61757;BME280;57225;61.460;24.060;2022-11-20T02:38:03;100660.22;;;-3.90;93.73
61757;BME280;57225;61.460;24.060;2022-11-20T02:40:47;100647.06;;;-4.01;92.64
61757;BME280;57225;61.460;24.060;2022-11-20T02:43:32;100657.78;;;-3.91;93.94
61757;BME280;57225;61.460;24.060;2022-11-20T02:46:16;100656.19;;;-3.92;93.77
61757;BME280;57225;61.460;24.060;2022-11-20T02:49:04;100648.59;;;-3.95;93.92
61757;BME280;57225;61.460;24.060;2022-11-20T02:51:48;100646.16;;;-3.97;94.39
61757;BME280;57225;61.460;24.060;2022-11-20T02:54:33;100648.53;;;-3.90;94.06
61757;BME280;57225;61.460;24.060;2022-11-20T02:57:17;100648.25;;;-3.89;93.99
61757;BME280;57225;61.460;24.060;2022-11-20T03:00:03;100649.63;;;-3.91;93.72
61757;BME280;57225;61.460;24.060;2022-11-20T03:02:48;100645.88;;;-3.95;93.64
61757;BME280;57225;61.460;24.060;2022-11-20T03:05:32;100639.09;;;-3.98;93.89
61757;BME280;57225;61.460;24.060;2022-11-20T03:08:17;100644.69;;;-3.89;94.25
61757;BME280;57225;61.460;24.060;2022-11-20T03:11:06;100634.19;;;-3.96;93.68
61757;BME280;57225;61.460;24.060;2022-11-20T03:13:51;100635.00;;;-3.95;93.93
61757;BME280;57225;61.460;24.060;2022-11-20T03:16:36;100641.59;;;-4.01;93.59
61757;BME280;57225;61.460;24.060;2022-11-20T03:19:20;100629.91;;;-4.02;94.23
61757;BME280;57225;61.460;24.060;2022-11-20T03:22:05;100628.28;;;-4.03;94.17
61757;BME280;57225;61.460;24.060;2022-11-20T03:24:49;100620.19;;;-4.08;93.85
61757;BME280;57225;61.460;24.060;2022-11-20T03:27:34;100622.03;;;-4.03;93.57
61757;BME280;57225;61.460;24.060;2022-11-20T03:30:18;100630.28;;;-4.09;93.79
61757;BME280;57225;61.460;24.060;2022-11-20T03:33:03;100629.47;;;-4.09;94.43
61757;BME280;57225;61.460;24.060;2022-11-20T03:35:47;100631.59;;;-4.06;94.62
61757;BME280;57225;61.460;24.060;2022-11-20T03:38:32;100637.53;;;-4.04;94.31
61757;BME280;57225;61.460;24.060;2022-11-20T03:41:20;100632.41;;;-4.06;94.10
61757;BME280;57225;61.460;24.060;2022-11-20T03:44:07;100628.66;;;-4.10;95.13
61757;BME280;57225;61.460;24.060;2022-11-20T03:46:51;100634.81;;;-4.04;94.49
61757;BME280;57225;61.460;24.060;2022-11-20T03:49:36;100631.59;;;-4.06;94.91
61757;BME280;57225;61.460;24.060;2022-11-20T03:52:21;100614.69;;;-4.03;95.25
61757;BME280;57225;61.460;24.060;2022-11-20T03:55:06;100629.03;;;-3.97;95.67
61757;BME280;57225;61.460;24.060;2022-11-20T03:57:51;100615.19;;;-4.01;96.04
61757;BME280;57225;61.460;24.060;2022-11-20T04:00:35;100611.94;;;-4.03;96.28
61757;BME280;57225;61.460;24.060;2022-11-20T04:03:20;100596.72;;;-4.04;95.42
61757;BME280;57225;61.460;24.060;2022-11-20T04:06:07;100600.56;;;-4.05;95.71
61757;BME280;57225;61.460;24.060;2022-11-20T04:08:54;100598.63;;;-4.05;95.69
61757;BME280;57225;61.460;24.060;2022-11-20T04:11:39;100597.47;;;-3.98;96.61
61757;BME280;57225;61.460;24.060;2022-11-20T04:14:24;100591.22;;;-3.99;96.63
61757;BME280;57225;61.460;24.060;2022-11-20T04:17:08;100585.19;;;-3.96;96.35
61757;BME280;57225;61.460;24.060;2022-11-20T04:19:53;100581.78;;;-3.88;96.62
61757;BME280;57225;61.460;24.060;2022-11-20T04:22:37;100585.41;;;-3.92;95.95
61757;BME280;57225;61.460;24.060;2022-11-20T04:25:21;100584.59;;;-3.93;95.80
61757;BME280;57225;61.460;24.060;2022-11-20T04:28:06;100582.75;;;-3.97;96.08
61757;BME280;57225;61.460;24.060;2022-11-20T04:30:50;100585.19;;;-3.96;97.16
61757;BME280;57225;61.460;24.060;2022-11-20T04:33:36;100576.81;;;-3.99;96.63
61757;BME280;57225;61.460;24.060;2022-11-20T04:36:23;100591.22;;;-3.99;96.89
61757;BME280;57225;61.460;24.060;2022-11-20T04:39:12;100584.16;;;-4.00;97.11
61757;BME280;57225;61.460;24.060;2022-11-20T04:41:57;100574.91;;;-3.99;97.43
61757;BME280;57225;61.460;24.060;2022-11-20T04:45:00;100571.13;;;-4.03;96.89
61757;BME280;57225;61.460;24.060;2022-11-20T04:47:44;100562.09;;;-3.98;96.87
61757;BME280;57225;61.460;24.060;2022-11-20T04:50:29;100565.38;;;-4.01;97.98
61757;BME280;57225;61.460;24.060;2022-11-20T04:53:13;100562.97;;;-4.03;97.28
61757;BME280;57225;61.460;24.060;2022-11-20T04:56:02;100556.41;;;-4.02;97.77
61757;BME280;57225;61.460;24.060;2022-11-20T04:58:46;100554.31;;;-4.05;97.67
61757;BME280;57225;61.460;24.060;2022-11-20T05:01:31;100553.69;;;-4.02;97.69
61757;BME280;57225;61.460;24.060;2022-11-20T05:04:16;100556.50;;;-4.07;97.76
61757;BME280;57225;61.460;24.060;2022-11-20T05:07:01;100548.84;;;-4.05;97.91
61757;BME280;57225;61.460;24.060;2022-11-20T05:09:45;100551.50;;;-4.00;98.37
61757;BME280;57225;61.460;24.060;2022-11-20T05:12:29;100546.63;;;-4.03;97.99
61757;BME280;57225;61.460;24.060;2022-11-20T05:15:15;100537.34;;;-4.02;98.60
61757;BME280;57225;61.460;24.060;2022-11-20T05:17:59;100538.03;;;-4.10;98.48
61757;BME280;57225;61.460;24.060;2022-11-20T05:20:44;100537.16;;;-4.06;98.83
61757;BME280;57225;61.460;24.060;2022-11-20T05:23:29;100541.19;;;-4.03;98.89
61757;BME280;57225;61.460;24.060;2022-11-20T05:26:16;100535.31;;;-4.10;99.62
61757;BME280;57225;61.460;24.060;2022-11-20T05:29:01;100530.66;;;-4.10;100.00
61757;BME280;57225;61.460;24.060;2022-11-20T05:31:45;100524.41;;;-4.10;100.00
61757;BME280;57225;61.460;24.060;2022-11-20T05:34:30;100531.00;;;-4.11;100.00
61757;BME280;57225;61.460;24.060;2022-11-20T05:37:14;100512.81;;;-4.16;100.00
61757;BME280;57225;61.460;24.060;2022-11-20T05:39:59;100524.22;;;-4.14;100.00
61757;BME280;57225;61.460;24.060;2022-11-20T05:42:43;100517.16;;;-4.15;100.00
61757;BME280;57225;61.460;24.060;2022-11-20T05:45:28;100508.78;;;-4.18;100.00
61757;BME280;57225;61.460;24.060;2022-11-20T05:48:12;100513.41;;;-4.19;100.00
61757;BME280;57225;61.460;24.060;2022-11-20T05:50:58;100501.72;;;-4.19;100.00
61757;BME280;57225;61.460;24.060;2022-11-20T05:53:42;100518.25;;;-4.16;100.00
61757;BME280;57225;61.460;24.060;2022-11-20T05:56:27;100511.69;;;-4.15;100.00
61757;BME280;57225;61.460;24.060;2022-11-20T05:59:11;100510.31;;;-4.12;100.00
61757;BME280;57225;61.460;24.060;2022-11-20T06:01:56;100504.25;;;-4.09;100.00
61757;BME280;57225;61.460;24.060;2022-11-20T06:04:40;100500.97;;;-4.06;100.00
61757;BME280;57225;61.460;24.060;2022-11-20T06:07:25;100502.78;;;-4.01;100.00
61757;BME280;57225;61.460;24.060;2022-11-20T06:10:09;100491.00;;;-3.97;100.00
61757;BME280;57225;61.460;24.060;2022-11-20T06:12:53;100501.31;;;-3.94;100.00
61757;BME280;57225;61.460;24.060;2022-11-20T06:15:37;100488.19;;;-3.92;100.00
61757;BME280;57225;61.460;24.060;2022-11-20T06:18:22;100480.44;;;-3.98;100.00
61757;BME280;57225;61.460;24.060;2022-11-20T06:21:09;100485.97;;;-3.90;100.00
61757;BME280;57225;61.460;24.060;2022-11-20T06:23:54;100466.59;;;-4.02;100.00
61757;BME280;57225;61.460;24.060;2022-11-20T06:26:39;100488.63;;;-3.85;100.00
61757;BME280;57225;61.460;24.060;2022-11-20T06:29:24;100488.63;;;-3.85;100.00
61757;BME280;57225;61.460;24.060;2022-11-20T06:32:08;100490.25;;;-3.84;100.00
61757;BME280;57225;61.460;24.060;2022-11-20T06:34:53;100489.13;;;-3.83;100.00
61757;BME280;57225;61.460;24.060;2022-11-20T06:37:37;100487.41;;;-3.79;100.00
61757;BME280;57225;61.460;24.060;2022-11-20T06:40:21;100472.91;;;-3.88;100.00
61757;BME280;57225;61.460;24.060;2022-11-20T06:43:06;100482.78;;;-3.78;100.00
61757;BME280;57225;61.460;24.060;2022-11-20T06:45:54;100478.66;;;-3.76;100.00
61757;BME280;57225;61.460;24.060;2022-11-20T06:48:39;100471.91;;;-3.78;100.00
61757;BME280;57225;61.460;24.060;2022-11-20T06:51:25;100478.88;;;-3.72;100.00
61757;BME280;57225;61.460;24.060;2022-11-20T06:54:09;100480.19;;;-3.70;100.00
61757;BME280;57225;61.460;24.060;2022-11-20T06:56:54;100479.38;;;-3.70;100.00
61757;BME280;57225;61.460;24.060;2022-11-20T06:59:38;100474.75;;;-3.70;100.00
61757;BME280;57225;61.460;24.060;2022-11-20T07:02:23;100473.41;;;-3.72;100.00
61757;BME280;57225;61.460;24.060;2022-11-20T07:05:07;100469.81;;;-3.68;100.00
61757;BME280;57225;61.460;24.060;2022-11-20T07:07:52;100477.38;;;-3.65;100.00
61757;BME280;57225;61.460;24.060;2022-11-20T07:10:36;100475.47;;;-3.64;100.00
61757;BME280;57225;61.460;24.060;2022-11-20T07:13:20;100470.13;;;-3.69;100.00
61757;BME280;57225;61.460;24.060;2022-11-20T07:16:06;100478.09;;;-3.59;100.00
61757;BME280;57225;61.460;24.060;2022-11-20T07:18:51;100474.13;;;-3.67;100.00
61757;BME280;57225;61.460;24.060;2022-11-20T07:21:35;100473.53;;;-3.63;100.00
61757;BME280;57225;61.460;24.060;2022-11-20T07:24:20;100469.22;;;-3.65;100.00
61757;BME280;57225;61.460;24.060;2022-11-20T07:27:04;100457.72;;;-3.61;100.00
61757;BME280;57225;61.460;24.060;2022-11-20T07:29:49;100475.97;;;-3.62;100.00
61757;BME280;57225;61.460;24.060;2022-11-20T07:32:33;100476.28;;;-3.63;100.00
61757;BME280;57225;61.460;24.060;2022-11-20T07:35:18;100465.28;;;-3.58;100.00
61757;BME280;57225;61.460;24.060;2022-11-20T07:38:02;100469.91;;;-3.59;100.00
61757;BME280;57225;61.460;24.060;2022-11-20T07:40:54;100473.69;;;-3.55;100.00
61757;BME280;57225;61.460;24.060;2022-11-20T07:43:39;100461.75;;;-3.59;100.00
61757;BME280;57225;61.460;24.060;2022-11-20T07:46:24;100470.94;;;-3.55;100.00
61757;BME280;57225;61.460;24.060;2022-11-20T07:49:08;100474.97;;;-3.52;100.00
61757;BME280;57225;61.460;24.060;2022-11-20T07:51:53;100471.66;;;-3.49;100.00
61757;BME280;57225;61.460;24.060;2022-11-20T07:54:37;100475.50;;;-3.50;100.00
61757;BME280;57225;61.460;24.060;2022-11-20T07:57:22;100475.38;;;-3.45;100.00
61757;BME280;57225;61.460;24.060;2022-11-20T08:00:08;100457.41;;;-3.60;100.00
61757;BME280;57225;61.460;24.060;2022-11-20T08:02:53;100464.31;;;-3.49;100.00
61757;BME280;57225;61.460;24.060;2022-11-20T08:05:37;100467.72;;;-3.43;100.00
61757;BME280;57225;61.460;24.060;2022-11-20T08:08:21;100461.66;;;-3.40;100.00
61757;BME280;57225;61.460;24.060;2022-11-20T08:11:06;100469.84;;;-3.40;100.00
61757;BME280;57225;61.460;24.060;2022-11-20T08:14:10;100469.53;;;-3.39;100.00
61757;BME280;57225;61.460;24.060;2022-11-20T08:16:57;100460.44;;;-3.34;100.00
61757;BME280;57225;61.460;24.060;2022-11-20T08:19:41;100461.06;;;-3.37;100.00
61757;BME280;57225;61.460;24.060;2022-11-20T08:22:25;100455.63;;;-3.37;100.00
61757;BME280;57225;61.460;24.060;2022-11-20T08:25:10;100450.06;;;-3.32;100.00
61757;BME280;57225;61.460;24.060;2022-11-20T08:27:57;100456.53;;;-3.28;100.00
61757;BME280;57225;61.460;24.060;2022-11-20T08:30:42;100459.66;;;-3.21;100.00
61757;BME280;57225;61.460;24.060;2022-11-20T08:33:28;100452.56;;;-3.22;100.00
61757;BME280;57225;61.460;24.060;2022-11-20T08:36:13;100451.19;;;-3.19;100.00
61757;BME280;57225;61.460;24.060;2022-11-20T08:38:58;100443.19;;;-3.16;100.00
61757;BME280;57225;61.460;24.060;2022-11-20T08:41:42;100441.38;;;-3.20;100.00
61757;BME280;57225;61.460;24.060;2022-11-20T08:44:27;100442.09;;;-3.29;100.00
61757;BME280;57225;61.460;24.060;2022-11-20T08:47:12;100440.78;;;-3.31;100.00
61757;BME280;57225;61.460;24.060;2022-11-20T08:49:57;100439.06;;;-3.27;100.00
61757;BME280;57225;61.460;24.060;2022-11-20T08:52:41;100432.72;;;-3.22;100.00
61757;BME280;57225;61.460;24.060;2022-11-20T08:55:26;100442.50;;;-3.35;100.00
61757;BME280;57225;61.460;24.060;2022-11-20T08:58:10;100446.25;;;-3.31;100.00
61757;BME280;57225;61.460;24.060;2022-11-20T09:00:54;100438.47;;;-3.38;100.00
61757;BME280;57225;61.460;24.060;2022-11-20T09:03:39;100437.25;;;-3.32;100.00
61757;BME280;57225;61.460;24.060;2022-11-20T09:06:23;100442.41;;;-3.30;100.00
61757;BME280;57225;61.460;24.060;2022-11-20T09:09:08;100435.63;;;-3.33;100.00
61757;BME280;57225;61.460;24.060;2022-11-20T09:11:52;100451.59;;;-3.26;100.00
61757;BME280;57225;61.460;24.060;2022-11-20T09:14:37;100456.31;;;-3.32;100.00
61757;BME280;57225;61.460;24.060;2022-11-20T09:17:21;100450.47;;;-3.25;100.00
61757;BME280;57225;61.460;24.060;2022-11-20T09:20:06;100460.75;;;-3.22;100.00
61757;BME280;57225;61.460;24.060;2022-11-20T09:22:50;100453.09;;;-3.20;100.00
61757;BME280;57225;61.460;24.060;2022-11-20T09:25:34;100451.00;;;-3.23;100.00
61757;BME280;57225;61.460;24.060;2022-11-20T09:28:19;100453.59;;;-3.18;100.00
61757;BME280;57225;61.460;24.060;2022-11-20T09:31:19;100453.59;;;-3.18;100.00
61757;BME280;57225;61.460;24.060;2022-11-20T09:34:05;100444.22;;;-3.12;100.00
61757;BME280;57225;61.460;24.060;2022-11-20T09:36:50;100449.25;;;-3.19;100.00
61757;BME280;57225;61.460;24.060;2022-11-20T09:39:34;100433.41;;;-3.17;100.00
61757;BME280;57225;61.460;24.060;2022-11-20T09:49:49;100437.44;;;-3.14;100.00
61757;BME280;57225;61.460;24.060;2022-11-20T09:55:24;100431.00;;;-3.05;100.00
61757;BME280;57225;61.460;24.060;2022-11-20T09:58:33;100417.84;;;-3.03;100.00
61757;BME280;57225;61.460;24.060;2022-11-20T10:01:21;100428.25;;;-3.05;100.00
61757;BME280;57225;61.460;24.060;2022-11-20T10:04:17;100427.06;;;-3.12;100.00
61757;BME280;57225;61.460;24.060;2022-11-20T10:07:11;100426.75;;;-3.11;100.00
61757;BME280;57225;61.460;24.060;2022-11-20T10:09:58;100417.47;;;-3.10;100.00
61757;BME280;57225;61.460;24.060;2022-11-20T10:13:05;100421.31;;;-3.11;100.00
61757;BME280;57225;61.460;24.060;2022-11-20T10:18:59;100422.91;;;-3.10;100.00
61757;BME280;57225;61.460;24.060;2022-11-20T10:30:45;100408.47;;;-3.10;100.00
61757;BME280;57225;61.460;24.060;2022-11-20T10:33:44;100409.78;;;-3.08;100.00
61757;BME280;57225;61.460;24.060;2022-11-20T10:36:34;100397.38;;;-3.14;100.00
61757;BME280;57225;61.460;24.060;2022-11-20T10:39:39;100406.44;;;-3.05;100.00
61757;BME280;57225;61.460;24.060;2022-11-20T10:42:35;100402.81;;;-3.14;100.00
61757;BME280;57225;61.460;24.060;2022-11-20T10:48:20;100382.94;;;-3.14;100.00
61757;BME280;57225;61.460;24.060;2022-11-20T10:54:38;100393.53;;;-3.13;100.00
61757;BME280;57225;61.460;24.060;2022-11-20T10:57:39;100383.97;;;-3.24;100.00
61757;BME280;57225;61.460;24.060;2022-11-20T11:00:31;100379.72;;;-3.16;100.00
61757;BME280;57225;61.460;24.060;2022-11-20T11:09:26;100362.56;;;-3.31;100.00
61757;BME280;57225;61.460;24.060;2022-11-20T11:12:14;100371.84;;;-3.18;100.00
61757;BME280;57225;61.460;24.060;2022-11-20T11:14:58;100378.28;;;-3.14;100.00
61757;BME280;57225;61.460;24.060;2022-11-20T11:17:47;100384.84;;;-3.15;100.00
61757;BME280;57225;61.460;24.060;2022-11-20T11:20:31;100382.75;;;-3.18;100.00
61757;BME280;57225;61.460;24.060;2022-11-20T11:26:21;100356.31;;;-3.31;100.00
61757;BME280;57225;61.460;24.060;2022-11-20T11:29:17;100366.38;;;-3.18;100.00
61757;BME280;57225;61.460;24.060;2022-11-20T11:32:17;100355.66;;;-3.14;100.00
61757;BME280;57225;61.460;24.060;2022-11-20T11:35:04;100360.94;;;-3.18;100.00
61757;BME280;57225;61.460;24.060;2022-11-20T11:37:49;100352.13;;;-3.15;100.00
61757;BME280;57225;61.460;24.060;2022-11-20T11:40:38;100352.03;;;-3.10;100.00
61757;BME280;57225;61.460;24.060;2022-11-20T11:43:29;100348.41;;;-3.05;100.00
61757;BME280;57225;61.460;24.060;2022-11-20T11:46:34;100347.59;;;-3.06;100.00
61757;BME280;57225;61.460;24.060;2022-11-20T11:49:20;100346.59;;;-3.10;100.00
61757;BME280;57225;61.460;24.060;2022-11-20T11:52:10;100352.53;;;-3.08;100.00
61757;BME280;57225;61.460;24.060;2022-11-20T11:55:01;100345.16;;;-3.07;100.00
61757;BME280;57225;61.460;24.060;2022-11-20T11:58:20;100338.28;;;-3.05;100.00
61757;BME280;57225;61.460;24.060;2022-11-20T12:04:20;100344.56;;;-3.04;100.00
61757;BME280;57225;61.460;24.060;2022-11-20T12:10:06;100349.81;;;-3.08;100.00
61757;BME280;57225;61.460;24.060;2022-11-20T12:13:02;100340.13;;;-3.14;100.00
61757;BME280;57225;61.460;24.060;2022-11-20T12:15:49;100348.81;;;-3.12;100.00
61757;BME280;57225;61.460;24.060;2022-11-20T12:18:33;100343.88;;;-3.10;100.00
61757;BME280;57225;61.460;24.060;2022-11-20T12:30:08;100326.38;;;-3.09;100.00
61757;BME280;57225;61.460;24.060;2022-11-20T12:38:56;100325.38;;;-3.13;100.00
61757;BME280;57225;61.460;24.060;2022-11-20T12:41:55;100326.38;;;-3.09;100.00
61757;BME280;57225;61.460;24.060;2022-11-20T12:48:23;100329.63;;;-3.07;100.00
61757;BME280;57225;61.460;24.060;2022-11-20T12:54:46;100334.34;;;-2.99;100.00
61757;BME280;57225;61.460;24.060;2022-11-20T12:57:41;100325.06;;;-2.98;100.00
61757;BME280;57225;61.460;24.060;2022-11-20T13:00:30;100334.03;;;-2.97;100.00
61757;BME280;57225;61.460;24.060;2022-11-20T13:06:18;100335.16;;;-2.98;100.00
61757;BME280;57225;61.460;24.060;2022-11-20T13:09:08;100330.16;;;-2.96;100.00
61757;BME280;57225;61.460;24.060;2022-11-20T13:17:59;100320.06;;;-2.96;100.00
61757;BME280;57225;61.460;24.060;2022-11-20T13:20:44;100310.63;;;-2.98;100.00
61757;BME280;57225;61.460;24.060;2022-11-20T13:23:29;100321.53;;;-2.98;100.00
61757;BME280;57225;61.460;24.060;2022-11-20T13:26:17;100317.56;;;-2.92;100.00
61757;BME280;57225;61.460;24.060;2022-11-20T13:29:11;100321.09;;;-2.92;100.00
61757;BME280;57225;61.460;24.060;2022-11-20T13:32:16;100309.56;;;-2.89;100.00
61757;BME280;57225;61.460;24.060;2022-11-20T13:35:04;100317.22;;;-2.91;100.00
61757;BME280;57225;61.460;24.060;2022-11-20T13:38:08;100302.59;;;-2.95;100.00
61757;BME280;57225;61.460;24.060;2022-11-20T13:40:58;100309.03;;;-2.91;100.00
61757;BME280;57225;61.460;24.060;2022-11-20T13:43:44;100315.63;;;-2.92;100.00
61757;BME280;57225;61.460;24.060;2022-11-20T13:49:32;100308.28;;;-2.91;100.00
61757;BME280;57225;61.460;24.060;2022-11-20T13:55:23;100305.53;;;-2.91;100.00
61757;BME280;57225;61.460;24.060;2022-11-20T14:01:29;100298.66;;;-2.89;100.00
61757;BME280;57225;61.460;24.060;2022-11-20T14:04:23;100298.66;;;-2.89;100.00
61757;BME280;57225;61.460;24.060;2022-11-20T14:07:10;100301.50;;;-2.94;100.00
61757;BME280;57225;61.460;24.060;2022-11-20T14:09:56;100291.53;;;-2.98;100.00
61757;BME280;57225;61.460;24.060;2022-11-20T14:12:40;100295.41;;;-2.91;100.00
61757;BME280;57225;61.460;24.060;2022-11-20T14:15:33;100287.34;;;-2.96;100.00
61757;BME280;57225;61.460;24.060;2022-11-20T14:18:21;100290.72;;;-2.99;100.00
61757;BME280;57225;61.460;24.060;2022-11-20T14:21:09;100288.81;;;-2.98;100.00
61757;BME280;57225;61.460;24.060;2022-11-20T14:24:03;100287.19;;;-2.99;100.00
61757;BME280;57225;61.460;24.060;2022-11-20T14:26:49;100286.00;;;-3.07;100.00
61757;BME280;57225;61.460;24.060;2022-11-20T14:29:38;100290.41;;;-2.97;100.00
61757;BME280;57225;61.460;24.060;2022-11-20T14:32:26;100290.59;;;-2.94;100.00
61757;BME280;57225;61.460;24.060;2022-11-20T14:35:26;100292.00;;;-2.96;100.00
61757;BME280;57225;61.460;24.060;2022-11-20T14:38:14;100278.00;;;-3.03;100.00
61757;BME280;57225;61.460;24.060;2022-11-20T14:41:06;100295.66;;;-3.01;100.00
61757;BME280;57225;61.460;24.060;2022-11-20T14:43:56;100281.91;;;-2.96;100.00
61757;BME280;57225;61.460;24.060;2022-11-20T14:46:40;100278.69;;;-2.98;100.00
61757;BME280;57225;61.460;24.060;2022-11-20T14:49:25;100276.44;;;-2.96;100.00
61757;BME280;57225;61.460;24.060;2022-11-20T14:52:14;100287.34;;;-2.96;100.00
61757;BME280;57225;61.460;24.060;2022-11-20T14:54:59;100287.06;;;-2.94;100.00
61757;BME280;57225;61.460;24.060;2022-11-20T14:57:54;100293.19;;;-2.89;100.00
61757;BME280;57225;61.460;24.060;2022-11-20T15:00:40;100283.81;;;-2.96;100.00
61757;BME280;57225;61.460;24.060;2022-11-20T15:03:34;100270.03;;;-3.00;100.00
61757;BME280;57225;61.460;24.060;2022-11-20T15:06:25;100290.59;;;-2.94;100.00
61757;BME280;57225;61.460;24.060;2022-11-20T15:09:14;100289.19;;;-2.91;100.00
61757;BME280;57225;61.460;24.060;2022-11-20T15:12:01;100288.97;;;-2.95;100.00
61757;BME280;57225;61.460;24.060;2022-11-20T15:14:46;100289.34;;;-2.88;100.00
61757;BME280;57225;61.460;24.060;2022-11-20T15:17:31;100289.97;;;-2.91;100.00
61757;BME280;57225;61.460;24.060;2022-11-20T15:20:19;100282.16;;;-2.84;100.00
61757;BME280;57225;61.460;24.060;2022-11-20T15:23:16;100282.78;;;-2.87;100.00
61757;BME280;57225;61.460;24.060;2022-11-20T15:26:04;100279.44;;;-2.84;100.00
61757;BME280;57225;61.460;24.060;2022-11-20T15:28:49;100278.69;;;-2.75;100.00
61757;BME280;57225;61.460;24.060;2022-11-20T15:31:34;100276.78;;;-2.75;100.00
61757;BME280;57225;61.460;24.060;2022-11-20T15:34:19;100279.31;;;-2.78;100.00
61757;BME280;57225;61.460;24.060;2022-11-20T15:37:03;100276.09;;;-2.80;100.00
61757;BME280;57225;61.460;24.060;2022-11-20T15:39:48;100266.31;;;-2.81;100.00
61757;BME280;57225;61.460;24.060;2022-11-20T15:42:32;100271.75;;;-2.81;100.00
61757;BME280;57225;61.460;24.060;2022-11-20T15:45:18;100284.44;;;-2.77;100.00